createdAt,value
2022-10-30T00:02:05.560Z,15.75
2022-10-30T00:07:07.438Z,15.74
2022-10-30T00:12:09.523Z,15.70
2022-10-30T00:17:11.319Z,15.63
2022-10-30T00:22:13.448Z,15.55
2022-10-30T00:27:15.301Z,15.48
2022-10-30T00:32:17.618Z,15.38
2022-10-30T00:37:19.658Z,15.34
2022-10-30T00:42:21.523Z,15.30
2022-10-30T00:47:34.291Z,15.28
2022-10-30T00:52:40.784Z,15.25
2022-10-30T00:57:43.124Z,15.24
2022-10-30T01:02:45.634Z,15.22
2022-10-30T01:07:47.787Z,15.19
2022-10-30T01:12:52.679Z,15.15
2022-10-30T01:18:36.563Z,15.12
2022-10-30T01:24:02.636Z,15.10
2022-10-30T01:29:28.728Z,15.07
2022-10-30T01:34:50.878Z,15.02
2022-10-30T01:39:53.704Z,14.98
2022-10-30T01:44:56.073Z,14.93
2022-10-30T01:50:36.525Z,14.90
2022-10-30T01:56:19.351Z,14.86
2022-10-30T02:01:23.979Z,14.79
2022-10-30T02:06:26.425Z,14.77
2022-10-30T02:11:29.083Z,14.75
2022-10-30T02:16:34.014Z,14.73
2022-10-30T02:21:36.248Z,14.69
2022-10-30T02:26:39.264Z,14.66
2022-10-30T02:31:41.909Z,14.66
2022-10-30T02:36:43.896Z,14.64
2022-10-30T02:41:46.145Z,14.65
2022-10-30T02:46:48.143Z,14.67
2022-10-30T02:51:50.013Z,14.69
2022-10-30T02:56:52.922Z,14.70
2022-10-30T03:01:56.881Z,14.70
2022-10-30T03:07:00.243Z,14.71
2022-10-30T03:12:02.129Z,14.72
2022-10-30T03:17:04.180Z,14.72
2022-10-30T03:22:06.044Z,14.73
2022-10-30T03:27:07.932Z,14.72
2022-10-30T03:32:11.388Z,14.73
2022-10-30T03:37:26.985Z,14.70
2022-10-30T03:42:28.905Z,14.70
2022-10-30T03:47:30.765Z,14.71
2022-10-30T03:52:32.637Z,14.73
2022-10-30T03:57:38.393Z,14.74
2022-10-30T04:02:50.072Z,14.75
2022-10-30T04:08:01.695Z,14.75
2022-10-30T04:13:09.741Z,14.72
2022-10-30T04:18:16.748Z,14.72
2022-10-30T04:23:21.472Z,14.71
2022-10-30T04:28:23.643Z,14.69
2022-10-30T04:33:25.815Z,14.65
2022-10-30T04:38:28.306Z,14.62
2022-10-30T04:43:31.607Z,14.61
2022-10-30T04:48:35.139Z,14.57
2022-10-30T04:53:37.158Z,14.51
2022-10-30T04:58:42.408Z,14.44
2022-10-30T05:03:45.118Z,14.38
2022-10-30T05:08:50.983Z,14.34
2022-10-30T05:14:13.131Z,14.30
2022-10-30T05:19:15.057Z,14.30
2022-10-30T05:24:25.205Z,14.30
2022-10-30T05:29:27.032Z,14.31
2022-10-30T05:34:28.934Z,14.32
2022-10-30T05:39:31.428Z,14.34
2022-10-30T05:44:58.788Z,14.34
2022-10-30T05:49:56.352Z,14.36
2022-10-30T05:55:00.976Z,14.39
2022-10-30T06:00:17.849Z,14.39
2022-10-30T06:05:19.654Z,14.41
2022-10-30T06:10:22.688Z,14.43
2022-10-30T06:15:45.703Z,14.44
2022-10-30T06:20:47.806Z,14.44
2022-10-30T06:26:21.548Z,14.46
2022-10-30T06:31:29.126Z,14.47
2022-10-30T06:36:31.078Z,14.50
2022-10-30T06:41:34.883Z,14.51
2022-10-30T06:47:16.117Z,14.61
2022-10-30T06:52:23.425Z,14.69
2022-10-30T06:57:28.914Z,14.79
2022-10-30T07:02:59.305Z,14.89
2022-10-30T07:08:01.750Z,14.99
2022-10-30T07:13:04.510Z,15.11
2022-10-30T07:18:20.278Z,15.23
2022-10-30T07:23:24.542Z,15.32
2022-10-30T07:28:31.816Z,15.39
2022-10-30T07:33:51.984Z,15.41
2022-10-30T07:39:12.583Z,15.44
2022-10-30T07:44:37.497Z,15.47
2022-10-30T07:49:52.339Z,15.52
2022-10-30T07:54:54.204Z,15.64
2022-10-30T08:00:17.411Z,15.74
2022-10-30T08:05:30.398Z,15.87
2022-10-30T08:10:40.945Z,15.90
2022-10-30T08:15:43.117Z,15.94
2022-10-30T08:20:50.601Z,16.08
2022-10-30T08:25:56.744Z,16.23
2022-10-30T08:30:59.367Z,16.29
2022-10-30T08:36:21.363Z,16.29
2022-10-30T08:41:23.291Z,16.26
2022-10-30T08:46:27.274Z,16.32
2022-10-30T08:51:33.873Z,16.45
2022-10-30T08:56:35.896Z,16.61
2022-10-30T09:01:45.430Z,16.77
2022-10-30T09:06:55.901Z,16.95
2022-10-30T09:12:21.873Z,17.16
2022-10-30T09:17:24.933Z,17.32
2022-10-30T09:22:27.628Z,17.34
2022-10-30T09:27:29.924Z,17.33
2022-10-30T09:32:34.706Z,17.30
2022-10-30T09:37:42.167Z,17.33
2022-10-30T09:42:50.972Z,17.41
2022-10-30T09:48:22.923Z,17.39
2022-10-30T09:53:39.139Z,17.37
2022-10-30T09:59:15.716Z,17.39
2022-10-30T10:04:33.743Z,17.47
2022-10-30T10:10:04.836Z,17.69
2022-10-30T10:15:46.994Z,17.94
2022-10-30T10:20:56.443Z,18.22
2022-10-30T10:26:05.388Z,18.46
2022-10-30T10:31:31.842Z,18.69
2022-10-30T10:37:07.385Z,18.86
2022-10-30T10:42:29.576Z,18.93
2022-10-30T10:47:56.356Z,19.01
2022-10-30T10:53:15.015Z,19.11
2022-10-30T10:58:22.437Z,19.26
2022-10-30T11:03:39.973Z,19.38
2022-10-30T11:08:41.897Z,19.40
2022-10-30T11:13:45.717Z,19.42
2022-10-30T11:18:51.274Z,19.49
2022-10-30T11:23:56.145Z,19.55
2022-10-30T11:29:18.703Z,19.56
2022-10-30T11:34:28.984Z,19.58
2022-10-30T11:39:35.363Z,19.56
2022-10-30T11:44:42.439Z,19.56
2022-10-30T11:50:02.012Z,19.55
2022-10-30T11:55:17.148Z,19.52
2022-10-30T12:00:24.818Z,19.51
2022-10-30T12:05:45.129Z,19.44
2022-10-30T12:11:00.117Z,19.40
2022-10-30T12:16:14.794Z,19.39
2022-10-30T12:21:20.203Z,19.40
2022-10-30T12:26:24.026Z,19.37
2022-10-30T12:31:56.026Z,19.36
2022-10-30T12:37:13.164Z,19.33
2022-10-30T12:42:17.617Z,19.31
2022-10-30T12:47:34.013Z,19.29
2022-10-30T12:52:42.023Z,19.25
2022-10-30T12:57:57.023Z,19.24
2022-10-30T13:03:22.811Z,19.25
2022-10-30T13:08:53.301Z,19.26
2022-10-30T13:13:57.946Z,19.25
2022-10-30T13:19:01.126Z,19.26
2022-10-30T13:24:29.146Z,19.24
2022-10-30T13:29:44.656Z,19.25
2022-10-30T13:34:56.041Z,19.23
2022-10-30T13:40:34.618Z,19.24
2022-10-30T13:46:00.793Z,19.22
2022-10-30T13:51:19.263Z,19.22
2022-10-30T13:56:22.688Z,19.21
2022-10-30T14:01:30.923Z,19.22
2022-10-30T14:06:40.080Z,19.20
2022-10-30T14:11:42.065Z,19.16
2022-10-30T14:16:45.987Z,19.15
2022-10-30T14:21:55.508Z,19.09
2022-10-30T14:27:03.521Z,19.02
2022-10-30T14:32:08.235Z,18.96
2022-10-30T14:37:11.490Z,18.87
2022-10-30T14:42:32.710Z,18.80
2022-10-30T14:48:00.190Z,18.71
2022-10-30T14:53:20.948Z,18.62
2022-10-30T14:58:29.047Z,18.53
2022-10-30T15:03:56.686Z,18.43
2022-10-30T15:09:15.908Z,18.35
2022-10-30T15:14:53.037Z,18.24
2022-10-30T15:19:59.283Z,18.11
2022-10-30T15:25:03.514Z,18.00
2022-10-30T15:30:06.397Z,17.90
2022-10-30T15:35:20.694Z,17.80
2022-10-30T15:40:22.648Z,17.69
2022-10-30T15:45:28.099Z,17.60
2022-10-30T15:50:30.152Z,17.51
2022-10-30T15:55:33.394Z,17.40
2022-10-30T16:00:37.983Z,17.33
2022-10-30T16:05:40.025Z,17.26
2022-10-30T16:10:44.257Z,17.18
2022-10-30T16:15:47.601Z,17.11
2022-10-30T16:20:52.641Z,17.03
2022-10-30T16:25:59.536Z,16.98
2022-10-30T16:31:06.749Z,16.92
2022-10-30T16:36:15.075Z,16.87
2022-10-30T16:41:24.156Z,16.79
2022-10-30T16:46:41.209Z,16.75
2022-10-30T16:51:43.655Z,16.71
2022-10-30T16:56:49.162Z,16.68
2022-10-30T17:01:57.668Z,16.65
2022-10-30T17:07:15.908Z,16.62
2022-10-30T17:12:23.843Z,16.57
2022-10-30T17:17:35.707Z,16.52
2022-10-30T17:22:37.854Z,16.51
2022-10-30T17:27:49.127Z,16.44
2022-10-30T17:32:54.527Z,16.39
2022-10-30T17:37:59.742Z,16.37
2022-10-30T17:43:05.073Z,16.35
2022-10-30T17:48:15.891Z,16.31
2022-10-30T17:53:24.178Z,16.26
2022-10-30T17:58:26.257Z,16.22
2022-10-30T18:03:28.599Z,16.18
2022-10-30T18:08:30.449Z,16.13
2022-10-30T18:13:32.329Z,16.10
2022-10-30T18:18:34.341Z,16.07
2022-10-30T18:23:51.751Z,16.04
2022-10-30T18:28:54.999Z,16.01
2022-10-30T18:33:57.044Z,16.01
2022-10-30T18:38:59.023Z,16.00
2022-10-30T18:44:01.531Z,15.98
2022-10-30T18:49:03.422Z,15.96
2022-10-30T18:54:14.270Z,15.92
2022-10-30T18:59:16.142Z,15.86
2022-10-30T19:04:22.166Z,15.82
2022-10-30T19:09:24.393Z,15.79
2022-10-30T19:14:26.230Z,15.76
2022-10-30T19:19:28.237Z,15.72
2022-10-30T19:24:30.144Z,15.69
2022-10-30T19:29:32.015Z,15.68
2022-10-30T19:34:33.852Z,15.67
2022-10-30T19:39:35.895Z,15.65
2022-10-30T19:44:37.737Z,15.63
2022-10-30T19:49:39.582Z,15.62
2022-10-30T19:54:41.505Z,15.64
2022-10-30T19:59:43.315Z,15.66
2022-10-30T20:04:45.142Z,15.67
2022-10-30T20:09:47.659Z,15.65
2022-10-30T20:14:49.442Z,15.64
2022-10-30T20:19:51.223Z,15.62
2022-10-30T20:24:53.050Z,15.60
2022-10-30T20:29:54.902Z,15.58
2022-10-30T20:34:57.034Z,15.55
2022-10-30T20:39:59.046Z,15.58
2022-10-30T20:45:00.863Z,15.63
2022-10-30T20:50:02.771Z,15.66
2022-10-30T20:55:05.410Z,15.68
2022-10-30T21:00:11.187Z,15.67
2022-10-30T21:05:38.062Z,15.67
2022-10-30T21:10:37.566Z,15.66
2022-10-30T21:15:41.584Z,15.64
2022-10-30T21:20:43.619Z,15.62
2022-10-30T21:25:45.460Z,15.60
2022-10-30T21:30:47.245Z,15.58
2022-10-30T21:35:49.024Z,15.55
2022-10-30T21:40:59.829Z,15.53
2022-10-30T21:46:12.895Z,15.51
2022-10-30T21:51:34.898Z,15.49
2022-10-30T21:56:36.657Z,15.48
2022-10-30T22:01:41.176Z,15.45
2022-10-30T22:06:44.608Z,15.39
2022-10-30T22:11:46.448Z,15.38
2022-10-30T22:16:48.581Z,15.37
2022-10-30T22:21:50.342Z,15.36
2022-10-30T22:26:52.174Z,15.45
2022-10-30T22:31:54.312Z,15.50
2022-10-30T22:36:56.380Z,15.53
2022-10-30T22:41:58.102Z,15.55
2022-10-30T22:46:59.844Z,15.64
2022-10-30T22:52:01.673Z,15.66
2022-10-30T22:57:03.629Z,15.68
2022-10-30T23:02:05.568Z,15.67
2022-10-30T23:07:07.503Z,15.67
2022-10-30T23:12:09.229Z,15.72
2022-10-30T23:17:11.076Z,15.79
2022-10-30T23:22:12.879Z,15.79
2022-10-30T23:27:14.667Z,15.76
2022-10-30T23:32:16.689Z,15.71
2022-10-30T23:37:18.746Z,15.66
2022-10-30T23:42:20.620Z,15.59
2022-10-30T23:47:22.436Z,15.51
2022-10-30T23:52:24.485Z,15.45
2022-10-30T23:57:26.494Z,15.42
